Time;durP1;ratioP1;P1;durP2;ratioP2;P2;SDS_P1;SDS_P2;PMS_P1;PMS_P2;Temp;Humidity;BMP_temperature;BMP_pressure;BME280_temperature;BME280_humidity;BME280_pressure;Samples;Min_cycle;Max_cycle;Signal;HPM_P1;HPM_P2
2022/08/17 00:00:48;;;;;;;8.52;5.25;;;19.90;99.90;;;;;;5056194;28;20186;-85
2022/08/17 00:03:18;;;;;;;7.55;4.78;;;19.80;99.90;;;;;;5038132;28;20283;-83
2022/08/17 00:05:54;;;;;;;5.80;3.88;;;19.80;99.90;;;;;;5055910;28;20263;-84
2022/08/17 00:08:24;;;;;;;5.25;3.70;;;19.80;99.90;;;;;;5056149;28;20202;-83
2022/08/17 00:10:51;;;;;;;7.15;4.43;;;19.80;99.90;;;;;;5055566;28;20172;-85
2022/08/17 00:13:30;;;;;;;6.28;4.30;;;19.70;99.90;;;;;;5055921;28;20182;-83
2022/08/17 00:16:02;;;;;;;8.05;4.28;;;19.80;99.90;;;;;;5055912;28;20172;-84
2022/08/17 00:18:30;;;;;;;6.20;4.43;;;19.80;99.90;;;;;;5055397;28;20194;-83
2022/08/17 00:20:57;;;;;;;5.57;3.70;;;19.80;99.90;;;;;;5055317;28;20180;-84
2022/08/17 00:23:24;;;;;;;6.97;4.65;;;19.70;99.90;;;;;;5055666;28;20285;-84
2022/08/17 00:25:51;;;;;;;4.80;3.70;;;19.70;99.90;;;;;;5055392;28;20180;-84
2022/08/17 00:28:17;;;;;;;6.25;4.35;;;19.70;99.90;;;;;;5056557;28;20172;-83
2022/08/17 00:30:44;;;;;;;7.85;4.38;;;19.70;99.90;;;;;;5054986;28;20259;-84
2022/08/17 00:33:14;;;;;;;6.05;4.30;;;19.70;99.90;;;;;;5054766;28;20637;-82
2022/08/17 00:35:40;;;;;;;6.25;4.15;;;19.70;99.90;;;;;;5055198;28;20187;-83
2022/08/17 00:38:08;;;;;;;6.88;4.28;;;19.60;99.90;;;;;;5055003;28;20656;-82
2022/08/17 00:40:36;;;;;;;4.78;3.53;;;19.70;99.90;;;;;;5076416;28;20232;-81
2022/08/17 00:43:37;;;;;;;5.18;3.85;;;19.60;99.90;;;;;;5076087;28;20176;-82
2022/08/17 00:46:14;;;;;;;6.75;4.75;;;19.70;99.90;;;;;;5055876;28;20199;-83
2022/08/17 00:48:41;;;;;;;6.28;4.55;;;19.60;99.90;;;;;;5054813;28;20636;-83
2022/08/17 00:51:10;;;;;;;5.15;3.92;;;19.60;99.90;;;;;;5020539;28;20647;-83
2022/08/17 00:53:41;;;;;;;6.25;4.10;;;19.50;99.90;;;;;;5055076;28;20281;-83
2022/08/17 00:56:10;;;;;;;5.35;3.85;;;19.50;99.90;;;;;;5055309;28;20529;-83
2022/08/17 00:58:37;;;;;;;5.28;4.20;;;19.50;99.90;;;;;;5055187;28;20194;-83
2022/08/17 01:01:05;;;;;;;5.35;4.28;;;19.60;99.90;;;;;;5054420;28;20180;-83
2022/08/17 01:03:31;;;;;;;6.40;3.88;;;19.50;99.90;;;;;;5054385;28;20192;-82
2022/08/17 01:06:01;;;;;;;4.82;3.97;;;19.50;99.90;;;;;;5054547;28;20211;-82
2022/08/17 01:08:29;;;;;;;4.75;3.28;;;19.50;99.90;;;;;;5036647;28;20168;-82
2022/08/17 01:11:00;;;;;;;11.88;4.70;;;19.50;99.90;;;;;;5054488;28;20182;-82
2022/08/17 01:13:27;;;;;;;6.05;4.30;;;19.50;99.90;;;;;;5036159;28;20216;-82
2022/08/17 01:16:04;;;;;;;7.32;4.80;;;19.40;99.90;;;;;;5054317;28;20183;-83
2022/08/17 01:18:31;;;;;;;9.70;6.20;;;19.40;99.90;;;;;;5054553;28;20164;-82
2022/08/17 01:21:04;;;;;;;7.18;3.95;;;19.40;99.90;;;;;;5054305;28;20180;-83
2022/08/17 01:23:30;;;;;;;10.23;4.10;;;19.40;99.90;;;;;;5054366;28;20218;-82
2022/08/17 01:25:59;;;;;;;5.97;4.47;;;19.30;99.90;;;;;;5054221;28;20180;-82
2022/08/17 01:28:29;;;;;;;5.15;3.58;;;19.30;99.90;;;;;;5054328;28;20168;-82
2022/08/17 01:30:58;;;;;;;5.28;4.30;;;19.20;99.90;;;;;;5054175;28;20188;-83
2022/08/17 01:33:23;;;;;;;5.78;4.40;;;19.20;99.90;;;;;;5053593;28;20704;-82
2022/08/17 01:35:49;;;;;;;6.82;4.00;;;19.20;99.90;;;;;;5053932;28;20263;-83
2022/08/17 01:38:16;;;;;;;6.55;4.55;;;19.20;99.90;;;;;;5036227;28;20234;-83
2022/08/17 01:40:52;;;;;;;4.57;3.67;;;19.20;99.90;;;;;;5053708;28;20231;-83
2022/08/17 01:43:43;;;;;;;5.57;4.10;;;19.20;99.90;;;;;;5054040;28;20159;-82
2022/08/17 01:46:17;;;;;;;4.68;3.58;;;19.10;99.90;;;;;;5040278;28;20223;-83
2022/08/17 01:48:46;;;;;;;6.28;4.22;;;19.10;99.90;;;;;;5053207;28;20610;-82
2022/08/17 01:51:12;;;;;;;6.15;3.97;;;19.00;99.90;;;;;;5053750;28;20179;-82
2022/08/17 01:53:42;;;;;;;7.53;3.95;;;19.10;99.90;;;;;;5053477;28;20199;-82
2022/08/17 01:56:17;;;;;;;7.35;4.57;;;19.00;99.90;;;;;;5053589;28;20168;-83
2022/08/17 01:58:44;;;;;;;5.70;3.88;;;19.00;99.90;;;;;;5053176;28;20159;-83
2022/08/17 02:01:11;;;;;;;6.85;4.53;;;19.00;99.90;;;;;;5052625;28;20259;-83
2022/08/17 02:03:37;;;;;;;4.47;3.50;;;19.00;99.90;;;;;;5053547;28;20236;-83
2022/08/17 02:06:04;;;;;;;7.25;4.95;;;18.90;99.90;;;;;;5053483;28;20184;-83
2022/08/17 02:08:34;;;;;;;6.55;5.03;;;18.90;99.90;;;;;;5018724;28;20624;-83
2022/08/17 02:11:02;;;;;;;5.03;4.20;;;18.90;99.90;;;;;;5053344;28;20188;-84
2022/08/17 02:13:29;;;;;;;7.88;4.90;;;18.90;99.90;;;;;;5052773;28;20267;-83
2022/08/17 02:15:59;;;;;;;10.80;4.57;;;18.80;99.90;;;;;;5053090;28;20633;-84
2022/08/17 02:18:25;;;;;;;5.53;4.28;;;18.80;99.90;;;;;;5035328;28;20180;-83
2022/08/17 02:20:52;;;;;;;4.75;4.07;;;18.80;99.90;;;;;;5035362;28;20184;-85
2022/08/17 02:23:18;;;;;;;6.10;4.53;;;18.90;99.90;;;;;;5053198;28;20255;-83
2022/08/17 02:25:48;;;;;;;6.55;4.50;;;18.80;99.90;;;;;;5035385;28;20548;-84
2022/08/17 02:28:14;;;;;;;5.53;4.60;;;18.80;99.90;;;;;;5053499;28;20178;-84
2022/08/17 02:30:41;;;;;;;7.03;4.28;;;18.80;99.90;;;;;;5053271;28;20175;-85
2022/08/17 02:33:07;;;;;;;6.43;4.45;;;18.90;99.90;;;;;;5052754;28;20258;-85
2022/08/17 02:35:36;;;;;;;8.55;3.72;;;18.90;99.90;;;;;;5035442;28;20180;-84
2022/08/17 02:38:04;;;;;;;6.63;4.30;;;18.80;99.90;;;;;;5053124;28;20199;-84
2022/08/17 02:40:31;;;;;;;6.88;4.60;;;18.90;99.90;;;;;;5052969;28;20314;-84
2022/08/17 02:42:56;;;;;;;10.10;4.35;;;18.80;99.90;;;;;;5053055;28;20187;-85
2022/08/17 02:45:23;;;;;;;5.13;4.35;;;18.80;99.90;;;;;;5053140;28;20199;-84
2022/08/17 02:47:49;;;;;;;7.32;4.40;;;18.80;99.90;;;;;;5052794;28;20266;-85
2022/08/17 02:50:18;;;;;;;5.32;4.20;;;18.80;99.90;;;;;;5035039;28;20211;-83
2022/08/17 02:52:46;;;;;;;6.22;5.03;;;18.70;99.90;;;;;;5052279;28;20270;-85
2022/08/17 02:55:19;;;;;;;7.00;4.72;;;18.70;99.90;;;;;;5052669;28;20180;-84
2022/08/17 02:57:45;;;;;;;9.02;5.22;;;18.70;99.90;;;;;;5053044;28;20156;-84
2022/08/17 03:00:20;;;;;;;6.72;5.10;;;18.70;99.90;;;;;;5035252;28;20203;-84
2022/08/17 03:02:46;;;;;;;8.13;5.57;;;18.70;99.90;;;;;;5052558;28;20628;-84
2022/08/17 03:05:15;;;;;;;7.00;4.90;;;18.70;99.90;;;;;;5052463;28;20208;-84
2022/08/17 03:07:41;;;;;;;10.00;5.00;;;18.70;99.90;;;;;;5052910;28;20220;-84
2022/08/17 03:10:08;;;;;;;5.13;4.47;;;18.70;99.90;;;;;;5035115;28;20279;-83
2022/08/17 03:12:37;;;;;;;6.93;4.63;;;18.70;99.90;;;;;;5056113;28;20529;-83
2022/08/17 03:15:06;;;;;;;5.80;4.20;;;18.70;99.90;;;;;;5056824;28;20215;-84
2022/08/17 03:17:32;;;;;;;6.82;5.22;;;18.70;99.90;;;;;;5056496;28;20172;-84
2022/08/17 03:19:57;;;;;;;8.30;4.50;;;18.80;99.90;;;;;;5039002;28;20266;-84
2022/08/17 03:22:25;;;;;;;5.40;4.65;;;18.70;99.90;;;;;;5055975;28;20705;-83
2022/08/17 03:24:50;;;;;;;4.70;3.75;;;18.80;99.90;;;;;;5056551;28;20203;-83
2022/08/17 03:27:16;;;;;;;5.53;4.25;;;18.80;99.90;;;;;;5038001;28;20234;-85
2022/08/17 03:29:41;;;;;;;6.32;4.85;;;18.80;99.90;;;;;;5038619;28;20184;-85
2022/08/17 03:32:15;;;;;;;5.93;4.22;;;18.80;99.90;;;;;;5056119;28;20275;-84
2022/08/17 03:34:41;;;;;;;6.35;4.32;;;18.90;99.90;;;;;;5056715;28;20176;-84
2022/08/17 03:37:07;;;;;;;7.28;4.65;;;18.80;99.90;;;;;;5055059;28;20172;-86
2022/08/17 03:39:33;;;;;;;6.35;4.30;;;18.80;99.90;;;;;;5049665;28;20591;-84
2022/08/17 03:42:07;;;;;;;6.57;4.30;;;18.80;99.90;;;;;;5051033;28;20287;-86
2022/08/17 03:44:33;;;;;;;9.00;4.90;;;18.80;99.90;;;;;;5071020;28;20699;-86
2022/08/17 03:57:55;;;;;;;5.53;4.57;;;19.00;99.90;;;;;;5037797;28;20242;-86
2022/08/17 04:00:21;;;;;;;6.18;4.57;;;19.00;99.90;;;;;;5034280;28;20199;-85
2022/08/17 04:02:47;;;;;;;4.60;3.85;;;;;;;;;;5053123;28;20561;-86
2022/08/17 04:05:14;;;;;;;5.78;4.10;;;;;;;;;;5034555;28;20310;-85
2022/08/17 04:07:40;;;;;;;6.35;4.00;;;19.10;99.90;;;;;;5052656;28;20181;-86
2022/08/17 04:10:06;;;;;;;6.07;4.05;;;19.00;99.90;;;;;;5054544;28;20264;-86
2022/08/17 04:12:45;;;;;;;5.43;4.13;;;19.00;99.90;;;;;;5037130;28;20183;-86
2022/08/17 04:15:11;;;;;;;5.43;3.83;;;19.10;99.90;;;;;;5054913;28;20182;-86
2022/08/17 04:17:37;;;;;;;6.25;4.97;;;19.10;99.90;;;;;;5054204;28;20184;-85
2022/08/17 04:20:03;;;;;;;5.00;4.00;;;19.10;99.90;;;;;;5054726;28;20255;-85
2022/08/17 04:22:29;;;;;;;6.15;4.68;;;19.10;99.90;;;;;;5036346;28;20593;-86
2022/08/17 04:24:55;;;;;;;5.47;4.43;;;19.20;99.90;;;;;;5054417;28;20290;-84
2022/08/17 04:27:21;;;;;;;5.57;3.70;;;19.20;99.90;;;;;;5054146;28;20206;-85
2022/08/17 04:29:47;;;;;;;6.75;4.30;;;19.20;99.90;;;;;;5037688;28;20180;-86
2022/08/17 04:32:12;;;;;;;5.32;4.18;;;19.20;99.90;;;;;;5036955;28;20183;-86
2022/08/17 04:34:38;;;;;;;5.00;4.03;;;19.20;99.90;;;;;;5036151;28;20213;-87
2022/08/17 04:37:04;;;;;;;6.32;4.53;;;19.30;99.90;;;;;;5053448;28;20535;-87
2022/08/17 04:39:30;;;;;;;5.63;4.13;;;19.30;99.90;;;;;;5019401;28;20536;-86
2022/08/17 04:42:15;;;;;;;6.70;4.72;;;19.30;99.90;;;;;;5069282;28;20227;-88
2022/08/17 04:44:42;;;;;;;9.43;4.72;;;19.20;99.90;;;;;;5050843;28;20195;-86
2022/08/17 04:47:08;;;;;;;5.63;4.47;;;;;;;;;;5023780;28;20603;-88
2022/08/17 04:49:36;;;;;;;5.40;4.20;;;;;;;;;;5055494;28;20207;-85
2022/08/17 04:52:02;;;;;;;4.43;3.60;;;19.80;99.90;;;;;;5053853;28;20640;-87
2022/08/17 04:54:27;;;;;;;8.40;4.38;;;19.40;99.90;;;;;;5035515;28;20231;-88
2022/08/17 04:56:53;;;;;;;6.95;4.35;;;;;;;;;;5036151;28;20179;-88
2022/08/17 04:59:20;;;;;;;5.57;3.72;;;19.30;99.90;;;;;;5019145;28;20192;-86
2022/08/17 05:01:49;;;;;;;7.97;4.68;;;19.40;99.90;;;;;;5054000;28;20255;-88
2022/08/17 05:04:22;;;;;;;4.85;3.92;;;19.40;99.90;;;;;;5053872;28;20415;-86
2022/08/17 05:06:48;;;;;;;4.70;3.28;;;;;;;;;;5054239;28;20176;-88
2022/08/17 05:09:16;;;;;;;6.65;4.38;;;;;;;;;;5054196;28;20180;-88
2022/08/17 05:11:42;;;;;;;7.10;4.47;;;;;;;;;;5054841;28;20278;-87
2022/08/17 05:14:08;;;;;;;7.00;4.50;;;19.50;99.90;;;;;;5037718;28;20188;-87
2022/08/17 05:16:33;;;;;;;5.65;3.78;;;18.80;99.90;;;;;;5020615;28;20242;-88
2022/08/17 05:19:01;;;;;;;6.93;4.60;;;;;;;;;;5036675;28;20578;-88
2022/08/17 05:21:27;;;;;;;5.65;4.30;;;;;;;;;;5054009;28;20187;-87
2022/08/17 05:23:53;;;;;;;6.22;4.68;;;;;;;;;;5054401;28;20208;-86
2022/08/17 05:26:20;;;;;;;8.13;5.30;;;19.40;99.90;;;;;;5054369;28;20187;-88
2022/08/17 05:28:46;;;;;;;7.03;4.53;;;;;;;;;;5054495;28;20176;-88
2022/08/17 05:31:13;;;;;;;8.40;5.07;;;;;;;;;;5053797;28;20179;-87
2022/08/17 05:33:40;;;;;;;4.90;3.42;;;19.30;99.90;;;;;;5054040;28;20629;-87
2022/08/17 05:36:08;;;;;;;5.43;4.05;;;18.90;99.90;;;;;;5054511;28;20263;-87
2022/08/17 05:41:57;;;;;;;5.30;4.05;;;;;;;;;;5350536;22;20333;-88
2022/08/17 05:44:23;;;;;;;7.28;5.13;;;;;;;;;;5039396;28;20207;-88
2022/08/17 05:46:50;;;;;;;5.53;4.40;;;19.50;99.90;;;;;;5056467;28;20182;-88
2022/08/17 05:49:23;;;;;;;5.28;4.22;;;19.60;99.90;;;;;;5073596;28;20201;-88
2022/08/17 05:51:51;;;;;;;4.60;3.42;;;19.40;99.90;;;;;;5076999;28;20174;-88
2022/08/17 05:54:51;;;;;;;10.70;4.88;;;19.60;99.90;;;;;;5062869;28;20187;-87
2022/08/17 05:57:28;;;;;;;7.63;4.65;;;19.60;99.90;;;;;;5073589;28;20639;-87
2022/08/17 06:00:00;;;;;;;7.95;4.30;;;19.60;99.90;;;;;;5076859;28;20159;-87
2022/08/17 06:02:39;;;;;;;6.20;4.60;;;19.70;99.90;;;;;;5075575;28;20179;-87
2022/08/17 06:05:31;;;;;;;4.10;3.05;;;19.70;99.90;;;;;;5075099;28;20259;-87
2022/08/17 06:07:57;;;;;;;7.38;4.97;;;;;;;;;;5074516;28;20190;-86
2022/08/17 06:10:34;;;;;;;5.63;4.13;;;19.50;99.90;;;;;;5073228;28;20525;-87
2022/08/17 06:13:00;;;;;;;6.57;4.57;;;;;;;;;;5073454;28;20186;-87
2022/08/17 06:15:32;;;;;;;5.80;4.57;;;19.40;99.90;;;;;;5055857;28;20186;-87
2022/08/17 06:18:05;;;;;;;5.63;4.03;;;19.60;99.90;;;;;;5071631;28;20174;-87
2022/08/17 06:21:04;;;;;;;7.00;5.00;;;19.70;99.90;;;;;;5075092;28;20616;-87
2022/08/17 06:23:37;;;;;;;7.70;4.10;;;19.90;99.90;;;;;;5047121;28;20675;-86
2022/08/17 06:26:11;;;;;;;4.50;4.05;;;19.90;99.90;;;;;;5074420;28;20224;-87
2022/08/17 06:29:01;;;;;;;6.78;4.82;;;20.30;99.90;;;;;;5075219;28;20159;-87
2022/08/17 06:31:35;;;;;;;6.47;4.32;;;20.40;99.90;;;;;;5059154;28;20183;-86
2022/08/17 06:34:05;;;;;;;5.82;4.15;;;20.50;99.90;;;;;;5072407;28;20167;-87
2022/08/17 06:36:59;;;;;;;7.30;4.47;;;20.30;99.90;;;;;;5078206;28;20201;-85
2022/08/17 06:39:59;;;;;;;8.70;5.13;;;20.70;99.90;;;;;;5058845;28;20217;-86
2022/08/17 06:42:43;;;;;;;7.65;5.20;;;21.00;99.90;;;;;;5063839;28;20215;-86
2022/08/17 06:45:12;;;;;;;6.75;4.43;;;20.80;99.90;;;;;;5053866;28;20695;-86
2022/08/17 06:47:48;;;;;;;6.72;4.45;;;20.90;99.90;;;;;;5076250;28;20186;-85
2022/08/17 06:50:23;;;;;;;8.02;4.32;;;20.90;99.90;;;;;;5076796;28;20273;-86
2022/08/17 06:52:54;;;;;;;7.30;4.93;;;21.00;99.90;;;;;;5058944;28;20171;-86
2022/08/17 06:55:27;;;;;;;7.22;4.72;;;21.20;99.90;;;;;;5076648;28;20191;-86
2022/08/17 06:57:58;;;;;;;4.50;3.45;;;21.30;99.90;;;;;;5076520;28;20246;-86
2022/08/17 07:00:32;;;;;;;6.30;3.95;;;21.90;99.90;;;;;;5076358;28;20217;-88
2022/08/17 07:03:05;;;;;;;5.47;4.07;;;21.60;99.90;;;;;;5076577;28;20194;-86
2022/08/17 07:05:37;;;;;;;6.45;4.90;;;;;;;;;;5076262;28;20224;-86
2022/08/17 07:08:18;;;;;;;6.07;4.28;;;21.70;99.90;;;;;;5076469;28;20262;-86
2022/08/17 07:10:49;;;;;;;5.55;3.90;;;21.70;99.90;;;;;;5076318;28;20613;-86
2022/08/17 07:13:43;;;;;;;7.90;4.65;;;21.50;99.90;;;;;;5077405;28;20168;-86
2022/08/17 07:16:21;;;;;;;5.82;3.97;;;22.60;99.90;;;;;;5079021;28;20195;-87
2022/08/17 07:18:50;;;;;;;7.78;4.43;;;22.40;99.90;;;;;;5088821;28;20230;-87
2022/08/17 07:21:28;;;;;;;5.30;3.95;;;23.00;99.90;;;;;;5088767;28;20163;-87
2022/08/17 07:24:12;;;;;;;8.48;5.05;;;22.50;99.90;;;;;;5081343;28;20202;-87
2022/08/17 07:26:38;;;;;;;7.93;4.93;;;;;;;;;;5076875;28;20167;-87
2022/08/17 07:29:04;;;;;;;4.95;3.72;;;23.40;99.90;;;;;;5081872;28;20175;-87
2022/08/17 07:31:32;;;;;;;5.30;3.72;;;22.80;99.90;;;;;;5078831;28;20228;-87
2022/08/17 07:34:13;;;;;;;4.82;3.33;;;22.90;99.90;;;;;;5079105;28;20553;-87
2022/08/17 07:36:40;;;;;;;5.93;3.75;;;;;;;;;;5077170;28;20164;-87
2022/08/17 07:39:07;;;;;;;7.13;3.78;;;;;;;;;;5058393;28;20274;-87
2022/08/17 07:41:38;;;;;;;4.70;3.75;;;23.10;99.90;;;;;;5075296;28;20184;-87
2022/08/17 07:44:11;;;;;;;5.78;3.30;;;23.30;99.90;;;;;;5076017;28;20206;-87
2022/08/17 07:49:38;;;;;;;4.18;3.45;;;23.10;99.90;;;;;;5075802;28;20491;-86
2022/08/17 07:52:29;;;;;;;3.88;3.47;;;23.80;99.90;;;;;;5058240;28;20187;-87
2022/08/17 07:54:55;;;;;;;5.43;4.00;;;;;;;;;;5076170;28;20183;-85
2022/08/17 07:57:22;;;;;;;5.00;3.28;;;;;;;;;;5075114;28;20202;-87
2022/08/17 08:00:00;;;;;;;4.78;3.40;;;23.00;99.90;;;;;;5075145;28;20175;-86
2022/08/17 08:02:39;;;;;;;5.35;3.60;;;22.90;99.90;;;;;;5075289;28;20260;-87
2022/08/17 08:05:24;;;;;;;4.60;3.10;;;23.40;99.90;;;;;;5076155;28;20550;-86
2022/08/17 08:07:56;;;;;;;10.55;3.88;;;23.00;99.90;;;;;;5057278;28;20205;-86
2022/08/17 08:10:38;;;;;;;7.35;4.60;;;23.60;99.90;;;;;;5075321;28;20159;-89
2022/08/17 08:13:22;;;;;;;3.70;3.20;;;23.00;99.90;;;;;;5075017;28;20672;-87
2022/08/17 08:15:54;;;;;;;7.28;3.80;;;22.90;99.90;;;;;;5079893;28;20167;-85
2022/08/17 08:18:30;;;;;;;5.50;3.70;;;22.90;99.90;;;;;;5075960;28;20217;-86
2022/08/17 08:21:08;;;;;;;6.88;4.40;;;23.20;99.90;;;;;;5076386;28;20203;-86
2022/08/17 08:23:57;;;;;;;8.38;4.65;;;23.20;99.90;;;;;;5075373;28;20552;-86
2022/08/17 08:26:55;;;;;;;6.95;4.35;;;23.30;99.90;;;;;;5074752;28;20205;-86
2022/08/17 08:29:30;;;;;;;5.68;4.10;;;23.20;99.90;;;;;;5074867;28;20171;-86
2022/08/17 08:32:17;;;;;;;4.47;3.88;;;23.40;99.90;;;;;;5055946;28;20227;-86
2022/08/17 08:35:15;;;;;;;6.25;4.00;;;22.90;99.90;;;;;;5057276;28;20565;-86
2022/08/17 08:37:48;;;;;;;5.45;3.95;;;;;;;;;;5049701;28;20192;-86
2022/08/17 08:40:19;;;;;;;9.13;5.00;;;23.60;99.90;;;;;;5091632;28;20167;-85
2022/08/17 08:43:16;;;;;;;6.15;3.40;;;23.80;99.90;;;;;;5098581;28;20322;-87
2022/08/17 08:45:51;;;;;;;5.15;4.32;;;23.90;99.90;;;;;;5081222;28;20221;-85
2022/08/17 08:48:45;;;;;;;6.53;4.22;;;24.30;99.90;;;;;;5081264;28;20198;-87
2022/08/17 08:51:28;;;;;;;7.70;5.03;;;24.70;99.90;;;;;;5097512;28;20707;-84
2022/08/17 08:54:09;;;;;;;6.85;4.10;;;24.40;99.90;;;;;;5071982;28;20221;-84
2022/08/17 08:56:41;;;;;;;7.75;4.90;;;24.40;99.90;;;;;;5074850;28;20170;-86
2022/08/17 08:59:12;;;;;;;7.65;4.30;;;24.40;99.90;;;;;;5094205;28;20230;-85
2022/08/17 09:02:03;;;;;;;6.53;4.60;;;24.40;99.90;;;;;;5079436;28;20155;-85
2022/08/17 09:04:44;;;;;;;5.38;4.30;;;24.40;99.90;;;;;;5079933;28;20686;-84
2022/08/17 09:07:26;;;;;;;6.57;4.03;;;24.40;99.90;;;;;;5073336;28;20217;-87
2022/08/17 09:10:07;;;;;;;5.43;3.90;;;24.50;99.90;;;;;;5071346;28;20195;-86
2022/08/17 09:13:01;;;;;;;6.25;4.15;;;24.40;99.90;;;;;;5073188;28;20175;-85
2022/08/17 09:15:32;;;;;;;8.93;4.10;;;25.30;99.90;;;;;;5074588;28;20278;-85
2022/08/17 09:18:00;;;;;;;6.82;5.28;;;24.70;99.90;;;;;;5075887;28;20246;-86
2022/08/17 09:20:32;;;;;;;8.98;4.40;;;25.00;99.90;;;;;;5076175;28;20179;-85
2022/08/17 09:23:07;;;;;;;8.90;5.25;;;24.80;99.90;;;;;;5075300;28;20246;-86
2022/08/17 09:25:48;;;;;;;5.35;4.20;;;25.00;99.90;;;;;;5073510;28;20217;-84
2022/08/17 09:28:22;;;;;;;5.78;3.72;;;25.50;99.90;;;;;;5072828;28;20217;-86
2022/08/17 09:30:56;;;;;;;5.55;3.95;;;25.40;99.90;;;;;;5071717;28;20159;-87
2022/08/17 09:33:27;;;;;;;9.40;4.35;;;25.60;99.90;;;;;;5053151;28;20168;-85
2022/08/17 09:35:59;;;;;;;5.03;3.97;;;25.70;99.90;;;;;;5072611;28;20167;-85
2022/08/17 09:38:31;;;;;;;8.38;3.65;;;25.80;99.90;;;;;;5054913;28;20267;-86
2022/08/17 09:41:01;;;;;;;7.22;4.20;;;25.90;99.90;;;;;;5070256;28;20224;-86
2022/08/17 09:43:48;;;;;;;5.47;4.30;;;26.20;99.90;;;;;;5054575;28;20269;-86
2022/08/17 09:46:38;;;;;;;7.10;4.53;;;25.90;99.90;;;;;;5067564;28;20636;-85
2022/08/17 09:49:17;;;;;;;5.72;3.97;;;25.80;99.90;;;;;;5071812;28;20170;-85
2022/08/17 09:52:09;;;;;;;8.00;3.92;;;25.40;99.90;;;;;;5066307;28;20200;-86
2022/08/17 09:54:38;;;;;;;10.43;3.97;;;25.40;99.90;;;;;;5064128;28;20171;-86
2022/08/17 09:57:33;;;;;;;8.18;4.55;;;25.50;99.90;;;;;;5071164;28;20183;-84
2022/08/17 10:00:12;;;;;;;4.95;4.00;;;25.00;99.90;;;;;;5070155;28;20675;-85
2022/08/17 10:02:39;;;;;;;7.63;4.03;;;;;;;;;;5067430;28;20194;-86
2022/08/17 10:05:31;;;;;;;7.40;4.13;;;25.80;99.90;;;;;;5066752;28;20256;-85
2022/08/17 10:08:21;;;;;;;4.25;3.53;;;26.00;99.90;;;;;;5079990;28;20179;-85
2022/08/17 10:11:12;;;;;;;5.93;3.97;;;25.70;99.90;;;;;;5082339;28;20206;-86
2022/08/17 10:13:38;;;;;;;5.65;3.72;;;;;;;;;;5068122;28;20202;-86
2022/08/17 10:16:13;;;;;;;5.15;3.38;;;25.90;99.90;;;;;;5063868;28;20214;-87
2022/08/17 10:19:12;;;;;;;6.68;3.95;;;25.80;99.90;;;;;;5067992;28;20175;-86
2022/08/17 10:27:20;;;;;;;5.20;3.78;;;26.80;99.90;;;;;;5083702;28;20256;-85
2022/08/17 10:29:56;;;;;;;4.95;3.45;;;27.00;99.90;;;;;;5081717;28;20178;-87
2022/08/17 10:32:39;;;;;;;6.07;4.00;;;27.60;99.90;;;;;;5077533;28;20232;-86
2022/08/17 10:35:11;;;;;;;6.45;3.90;;;27.10;99.90;;;;;;5078375;28;20665;-86
2022/08/17 10:37:52;;;;;;;4.47;3.50;;;27.50;99.90;;;;;;5071174;28;20214;-85
2022/08/17 10:40:34;;;;;;;6.40;3.63;;;27.50;99.90;;;;;;5053202;28;20186;-85
2022/08/17 10:43:20;;;;;;;7.00;3.05;;;27.30;99.90;;;;;;5071478;28;20226;-87
2022/08/17 10:45:46;;;;;;;5.45;4.00;;;;;;;;;;5069938;28;20199;-86
2022/08/17 10:48:35;;;;;;;5.47;3.88;;;27.90;99.90;;;;;;5053317;28;20597;-86
2022/08/17 10:51:32;;;;;;;4.72;3.40;;;27.50;99.90;;;;;;5071116;28;20242;-84
2022/08/17 10:54:00;;;;;;;4.47;3.65;;;;;;;;;;5052622;28;20749;-86
2022/08/17 10:56:43;;;;;;;3.95;3.15;;;26.70;99.90;;;;;;5072184;28;20172;-84
2022/08/17 10:59:34;;;;;;;6.90;3.58;;;26.40;99.90;;;;;;5072014;28;20627;-85
2022/08/17 11:02:00;;;;;;;3.58;3.25;;;;;;;;;;5070855;28;20179;-85
2022/08/17 11:04:51;;;;;;;4.00;2.97;;;25.90;99.90;;;;;;5072734;28;20218;-86
2022/08/17 11:07:47;;;;;;;3.75;2.85;;;25.80;99.90;;;;;;5070796;28;20167;-84
2022/08/17 11:10:26;;;;;;;4.95;3.35;;;25.80;99.90;;;;;;5051386;28;20514;-86
2022/08/17 11:13:21;;;;;;;5.15;4.03;;;26.10;99.90;;;;;;5069019;28;20191;-86
2022/08/17 11:16:09;;;;;;;5.88;3.58;;;26.30;99.90;;;;;;5053742;28;20651;-87
2022/08/17 11:19:08;;;;;;;4.00;3.25;;;25.70;99.90;;;;;;5069777;28;20160;-86
2022/08/17 11:22:11;;;;;;;5.72;3.20;;;26.50;99.90;;;;;;5069989;28;20178;-84
2022/08/17 11:24:41;;;;;;;7.45;3.50;;;26.60;99.90;;;;;;5053474;28;20249;-84
2022/08/17 11:27:12;;;;;;;2.83;2.40;;;26.20;99.90;;;;;;5070679;28;20270;-84
2022/08/17 11:30:00;;;;;;;6.22;3.30;;;26.20;99.90;;;;;;5071040;28;20259;-85
2022/08/17 11:32:37;;;;;;;3.95;3.13;;;26.10;99.90;;;;;;5070756;28;20226;-85
2022/08/17 11:35:11;;;;;;;3.75;2.92;;;25.90;99.90;;;;;;5075540;28;20179;-86
2022/08/17 11:37:48;;;;;;;6.13;3.88;;;26.00;99.90;;;;;;5073028;28;20189;-86
2022/08/17 11:40:32;;;;;;;6.20;3.40;;;25.90;99.90;;;;;;5072980;28;20171;-86
2022/08/17 11:43:02;;;;;;;5.30;3.88;;;26.20;99.90;;;;;;5073101;28;20340;-84
2022/08/17 11:46:01;;;;;;;4.70;2.88;;;25.70;99.90;;;;;;5074550;28;20226;-85
2022/08/17 11:51:58;;;;;;;4.38;3.25;;;25.50;99.90;;;;;;5074815;28;20662;-85
2022/08/17 11:54:29;;;;;;;3.97;3.25;;;25.80;99.90;;;;;;5073708;28;20183;-83
2022/08/17 11:56:58;;;;;;;6.35;3.75;;;25.90;99.90;;;;;;5074108;28;20206;-84
2022/08/17 11:59:37;;;;;;;5.38;3.58;;;26.10;99.90;;;;;;5071324;28;20179;-85
2022/08/17 12:02:33;;;;;;;5.97;3.80;;;25.90;99.90;;;;;;5050635;28;20184;-87
2022/08/17 12:05:16;;;;;;;5.18;3.53;;;25.40;99.90;;;;;;5073195;28;20187;-85
2022/08/17 12:08:02;;;;;;;6.50;3.53;;;26.00;99.90;;;;;;5073358;28;20169;-84
2022/08/17 12:10:31;;;;;;;3.42;3.13;;;26.30;99.90;;;;;;5074085;28;20195;-85
2022/08/17 12:12:59;;;;;;;8.60;4.32;;;25.90;99.90;;;;;;5037267;28;20222;-86
2022/08/17 12:15:40;;;;;;;5.20;4.20;;;25.60;99.90;;;;;;5071651;28;20274;-85
2022/08/17 12:18:06;;;;;;;4.88;3.35;;;;;;;;;;5070378;28;20171;-87
2022/08/17 12:20:36;;;;;;;7.72;4.85;;;25.90;99.90;;;;;;5054826;28;20179;-86
2022/08/17 12:23:03;;;;;;;6.13;4.28;;;;;;;;;;5073122;28;20245;-86
2022/08/17 12:25:42;;;;;;;8.40;3.88;;;25.40;99.90;;;;;;5074757;28;20206;-85
2022/08/17 12:28:22;;;;;;;10.40;5.82;;;25.80;99.90;;;;;;5074937;28;20175;-86
2022/08/17 12:30:49;;;;;;;6.68;4.57;;;25.90;99.90;;;;;;5074937;28;20493;-84
2022/08/17 12:33:24;;;;;;;8.68;5.30;;;26.00;99.90;;;;;;5073530;28;20167;-85
2022/08/17 12:36:07;;;;;;;4.25;3.58;;;26.10;99.90;;;;;;5074595;28;20620;-86
2022/08/17 12:38:36;;;;;;;9.98;5.75;;;26.50;99.90;;;;;;5073997;28;20163;-84
2022/08/17 12:44:00;;;;;;;7.68;3.50;;;26.80;99.90;;;;;;5072055;28;20288;-83
2022/08/17 12:46:26;;;;;;;5.50;3.25;;;26.60;99.90;;;;;;5073728;28;20268;-85
2022/08/17 12:48:52;;;;;;;5.95;4.00;;;;;;;;;;5054626;28;20636;-85
2022/08/17 12:51:17;;;;;;;5.95;3.90;;;26.70;99.90;;;;;;5038948;28;20551;-85
2022/08/17 12:53:52;;;;;;;4.75;3.30;;;26.20;99.90;;;;;;5055613;28;20232;-85
2022/08/17 12:56:18;;;;;;;4.88;3.38;;;26.30;99.90;;;;;;5073293;28;20175;-85
2022/08/17 12:58:52;;;;;;;4.10;2.97;;;26.10;99.90;;;;;;5056364;28;20195;-86
2022/08/17 13:01:18;;;;;;;5.13;3.47;;;26.60;99.90;;;;;;5073328;28;20175;-85
2022/08/17 13:03:48;;;;;;;4.72;2.80;;;26.90;99.90;;;;;;5072582;28;20206;-86
2022/08/17 13:06:35;;;;;;;4.70;3.33;;;26.50;99.90;;;;;;5052502;28;20198;-86
2022/08/17 13:09:10;;;;;;;4.85;3.45;;;27.00;99.90;;;;;;5052312;28;20186;-84
2022/08/17 13:11:59;;;;;;;4.03;3.20;;;27.00;99.90;;;;;;5070246;28;20175;-84
2022/08/17 13:14:26;;;;;;;5.10;3.17;;;;;;;;;;5055095;28;20187;-84
2022/08/17 13:16:57;;;;;;;5.53;3.88;;;27.30;99.90;;;;;;5072592;28;20524;-86
2022/08/17 13:19:23;;;;;;;4.13;3.15;;;27.50;99.90;;;;;;5072603;28;20163;-86
2022/08/17 13:21:52;;;;;;;4.47;3.63;;;27.70;99.90;;;;;;5071719;28;20191;-85
2022/08/17 13:24:31;;;;;;;5.45;3.17;;;28.10;99.90;;;;;;5071762;28;20214;-87
2022/08/17 13:27:08;;;;;;;6.03;3.25;;;28.50;99.90;;;;;;5070382;28;20185;-85
2022/08/17 13:29:44;;;;;;;4.57;3.42;;;27.90;99.90;;;;;;5070469;28;20336;-86
2022/08/17 13:32:10;;;;;;;4.88;3.13;;;27.80;99.90;;;;;;5069948;28;20258;-86
2022/08/17 13:34:42;;;;;;;4.03;3.10;;;27.90;99.90;;;;;;5072162;28;20766;-86
2022/08/17 13:37:28;;;;;;;3.92;3.53;;;28.00;99.90;;;;;;5072694;28;20198;-86
2022/08/17 13:40:07;;;;;;;6.55;3.63;;;27.90;99.90;;;;;;5052467;28;20175;-86
2022/08/17 13:42:42;;;;;;;7.97;3.92;;;27.90;99.90;;;;;;5069148;28;20219;-85
2022/08/17 13:45:26;;;;;;;3.50;3.10;;;27.10;99.90;;;;;;5071376;28;20210;-85
2022/08/17 13:48:07;;;;;;;4.95;4.00;;;27.70;99.90;;;;;;5072008;28;20178;-85
2022/08/17 13:50:33;;;;;;;4.80;3.28;;;;;;;;;;5071563;28;20745;-85
2022/08/17 13:52:59;;;;;;;5.28;3.30;;;27.90;99.90;;;;;;5071384;28;20191;-85
2022/08/17 13:55:29;;;;;;;6.32;3.50;;;26.70;99.90;;;;;;5070801;28;20186;-86
2022/08/17 13:57:55;;;;;;;6.18;4.38;;;;;;;;;;5070999;28;20711;-85
2022/08/17 14:00:35;;;;;;;5.15;3.85;;;26.80;99.90;;;;;;5070690;28;20190;-86